Time;durP1;ratioP1;P1;durP2;ratioP2;P2;SDS_P1;SDS_P2;PMS_P1;PMS_P2;Temp;Humidity;BMP_temperature;BMP_pressure;BME280_temperature;BME280_humidity;BME280_pressure;Samples;Min_cycle;Max_cycle;Signal;HPM_P1;HPM_P2
2023/01/16 00:00:59;;;;;;;15.63;8.88;;;3.40;99.90;;;;;;5033302;28;20015;-73
2023/01/16 00:03:25;;;;;;;19.63;9.98;;;;;;;;;;5032181;28;20065;-73
2023/01/16 00:05:51;;;;;;;17.35;9.20;;;3.50;99.90;;;;;;5032908;28;20505;-74
2023/01/16 00:08:17;;;;;;;19.73;8.93;;;;;;;;;;5033111;28;20041;-73
2023/01/16 00:10:44;;;;;;;18.92;9.23;;;;;;;;;;5031880;28;20060;-73
2023/01/16 00:13:12;;;;;;;16.33;9.63;;;3.20;99.90;;;;;;5031650;28;20398;-73
2023/01/16 00:15:38;;;;;;;20.48;9.25;;;;;;;;;;5033044;28;20052;-73
2023/01/16 00:18:04;;;;;;;;;;;;;;;;;;5032330;28;20490;-75
2023/01/16 00:20:30;;;;;;;14.65;9.00;;;3.40;99.90;;;;;;5032934;28;19925;-75
2023/01/16 00:22:55;;;;;;;14.73;9.20;;;4.20;99.90;;;;;;5032988;28;20038;-73
2023/01/16 00:25:21;;;;;;;15.88;8.63;;;;;;;;;;5031288;28;20065;-73
2023/01/16 00:27:47;;;;;;;13.57;7.60;;;3.90;99.90;;;;;;5032548;28;20526;-74
2023/01/16 00:30:13;;;;;;;16.95;8.68;;;3.90;99.90;;;;;;5031757;28;20053;-74
2023/01/16 00:32:39;;;;;;;13.43;6.30;;;;;;;;;;5032829;28;20049;-74
2023/01/16 00:35:05;;;;;;;10.80;7.05;;;3.90;99.90;;;;;;5032755;28;20049;-75
2023/01/16 00:37:31;;;;;;;12.85;6.53;;;4.40;99.90;;;;;;5014883;28;20049;-74
2023/01/16 00:39:57;;;;;;;11.70;6.00;;;;;;;;;;5032324;28;20103;-74
2023/01/16 00:42:23;;;;;;;10.30;6.70;;;;;;;;;;5031007;28;20823;-74
2023/01/16 00:44:48;;;;;;;10.50;5.70;;;3.80;99.90;;;;;;5031420;28;20488;-73
2023/01/16 00:47:14;;;;;;;7.93;5.07;;;4.50;99.90;;;;;;5032431;28;20053;-74
2023/01/16 00:49:40;;;;;;;10.93;5.80;;;4.70;99.90;;;;;;5014932;28;20092;-75
2023/01/16 00:52:06;;;;;;;11.52;5.88;;;;;;;;;;5032484;28;20053;-75
2023/01/16 00:54:32;;;;;;;10.02;5.60;;;4.40;99.90;;;;;;5030722;28;20042;-74
2023/01/16 00:56:57;;;;;;;12.60;6.00;;;3.80;99.90;;;;;;5031425;28;20548;-73
2023/01/16 00:59:23;;;;;;;12.52;6.60;;;4.90;99.90;;;;;;5032233;28;20068;-73
2023/01/16 01:01:49;;;;;;;12.48;6.53;;;4.60;99.90;;;;;;5032263;28;20045;-74
2023/01/16 01:04:16;;;;;;;12.02;6.18;;;;;;;;;;5032174;28;20823;-75
2023/01/16 01:06:42;;;;;;;9.77;6.32;;;4.50;99.90;;;;;;5032159;28;20058;-74
2023/01/16 01:09:08;;;;;;;11.00;6.82;;;3.90;99.90;;;;;;5030562;28;20058;-77
2023/01/16 01:11:34;;;;;;;14.55;6.97;;;4.90;99.90;;;;;;5043720;28;20040;-74
2023/01/16 01:13:59;;;;;;;13.70;6.80;;;4.40;99.90;;;;;;5049650;28;20500;-74
2023/01/16 01:16:25;;;;;;;12.88;8.15;;;;;;;;;;5051833;28;20141;-74
2023/01/16 01:18:51;;;;;;;17.05;7.38;;;4.00;99.90;;;;;;5050845;28;20561;-73
2023/01/16 01:21:17;;;;;;;15.95;8.15;;;4.50;99.90;;;;;;5052149;28;20160;-74
2023/01/16 01:23:43;;;;;;;12.35;6.97;;;;;;;;;;5050292;28;20477;-74
2023/01/16 01:26:10;;;;;;;14.45;7.65;;;3.60;99.90;;;;;;5051805;28;20045;-74
2023/01/16 01:28:36;;;;;;;14.57;7.70;;;4.10;99.90;;;;;;5050706;28;20047;-74
2023/01/16 01:31:07;;;;;;;15.60;8.13;;;3.50;99.90;;;;;;5051852;28;20408;-73
2023/01/16 01:33:33;;;;;;;14.75;8.00;;;4.20;99.90;;;;;;5050457;28;20044;-74
2023/01/16 01:35:58;;;;;;;18.10;7.10;;;4.30;99.90;;;;;;5050661;28;20061;-74
2023/01/16 01:38:24;;;;;;;13.18;7.07;;;;;;;;;;5051375;28;20049;-74
2023/01/16 01:40:50;;;;;;;15.98;8.25;;;3.40;99.90;;;;;;5050431;28;20131;-74
2023/01/16 01:43:16;;;;;;;19.38;8.07;;;;;;;;;;5034055;28;20453;-74
2023/01/16 01:45:48;;;;;;;20.58;7.70;;;4.00;99.90;;;;;;5050552;28;20088;-74
2023/01/16 01:48:14;;;;;;;18.35;7.80;;;3.50;99.90;;;;;;5051677;28;20041;-75
2023/01/16 01:50:44;;;;;;;14.45;7.50;;;;;;;;;;5051309;28;20045;-74
2023/01/16 01:53:14;;;;;;;18.50;7.57;;;;;;;;;;5051475;28;20041;-74
2023/01/16 01:55:42;;;;;;;13.15;7.18;;;4.20;99.90;;;;;;5050483;28;20053;-74
2023/01/16 01:58:08;;;;;;;19.30;7.78;;;3.50;99.90;;;;;;5051473;28;20053;-74
2023/01/16 02:00:34;;;;;;;16.65;7.78;;;4.20;99.90;;;;;;5050193;28;20401;-74
2023/01/16 02:03:07;;;;;;;14.70;7.72;;;;;;;;;;5051241;28;20497;-76
2023/01/16 02:05:44;;;;;;;16.20;6.90;;;4.10;99.90;;;;;;5051407;28;20048;-74
2023/01/16 02:08:13;;;;;;;17.58;7.13;;;;;;;;;;5051479;28;20057;-74
2023/01/16 02:10:49;;;;;;;17.73;7.97;;;;;;;;;;5051387;28;20132;-73
2023/01/16 02:13:14;;;;;;;19.00;7.13;;;3.50;99.90;;;;;;5051335;28;20476;-74
2023/01/16 02:21:34;;;;;;;12.82;6.85;;;4.20;99.90;;;;;;5051211;28;20072;-74
2023/01/16 02:24:11;;;;;;;14.10;6.82;;;;;;;;;;5053866;28;20045;-74
2023/01/16 02:26:43;;;;;;;;;;;2.90;99.90;;;;;;5055711;28;20534;-75
2023/01/16 02:29:08;;;;;;;11.10;6.65;;;3.80;99.90;;;;;;5055310;28;19920;-74
2023/01/16 02:31:34;;;;;;;14.87;6.63;;;;;;;;;;5054007;28;20134;-74
2023/01/16 02:34:03;;;;;;;17.20;6.15;;;;;;;;;;5054670;28;20629;-78
2023/01/16 02:36:42;;;;;;;20.30;6.43;;;;;;;;;;5054809;28;20190;-74
2023/01/16 02:39:52;;;;;;;14.32;6.38;;;2.90;99.90;;;;;;5053893;28;20162;-74
2023/01/16 02:42:36;;;;;;;16.52;6.07;;;;;;;;;;5031912;28;20123;-75
2023/01/16 02:45:03;;;;;;;14.43;6.28;;;;;;;;;;5032149;28;20676;-75
2023/01/16 02:47:31;;;;;;;10.13;5.70;;;;;;;;;;5033374;28;20057;-74
2023/01/16 02:50:27;;;;;;;14.20;6.32;;;3.30;99.90;;;;;;5034081;28;20486;-76
2023/01/16 02:53:20;;;;;;;14.48;5.95;;;3.60;99.90;;;;;;5034653;28;20605;-75
2023/01/16 02:55:48;;;;;;;18.50;6.50;;;;;;;;;;5034608;28;20057;-74
2023/01/16 02:58:15;;;;;;;16.95;6.18;;;;;;;;;;5033455;28;20042;-74
2023/01/16 03:00:55;;;;;;;14.13;6.57;;;;;;;;;;5034425;28;20055;-74
2023/01/16 03:03:41;;;;;;;18.80;6.68;;;2.80;99.90;;;;;;5034110;28;20048;-73
2023/01/16 03:06:34;;;;;;;17.60;6.47;;;;;;;;;;5034402;28;20064;-74
2023/01/16 03:09:07;;;;;;;11.93;6.22;;;;;;;;;;5031875;28;20056;-74
2023/01/16 03:11:48;;;;;;;16.70;6.82;;;;;;;;;;5034347;28;20080;-74
2023/01/16 03:14:24;;;;;;;15.40;7.15;;;;;;;;;;5034265;28;20045;-74
2023/01/16 03:17:02;;;;;;;17.27;6.95;;;3.00;99.90;;;;;;5034241;28;20042;-75
2023/01/16 03:19:43;;;;;;;19.05;7.53;;;3.30;99.90;;;;;;5032734;28;20194;-73
2023/01/16 03:22:31;;;;;;;16.15;6.68;;;3.20;99.90;;;;;;5034180;28;20048;-73
2023/01/16 03:25:19;;;;;;;19.73;6.93;;;4.00;99.90;;;;;;5034147;28;20084;-75
2023/01/16 03:27:50;;;;;;;15.57;7.50;;;;;;;;;;5034043;28;20053;-74
2023/01/16 03:30:28;;;;;;;15.48;6.32;;;4.30;99.90;;;;;;5033969;28;20085;-74
2023/01/16 03:33:00;;;;;;;12.30;6.75;;;;;;;;;;5032265;28;20081;-74
2023/01/16 03:35:30;;;;;;;12.82;6.32;;;;;;;;;;5033803;28;20386;-74
2023/01/16 03:38:01;;;;;;;12.35;6.47;;;4.30;99.90;;;;;;5033769;28;20045;-75
2023/01/16 03:40:30;;;;;;;16.73;6.97;;;;;;;;;;5033818;28;20120;-74
2023/01/16 03:43:05;;;;;;;12.40;6.25;;;4.30;99.90;;;;;;5052013;28;20060;-74
2023/01/16 03:45:41;;;;;;;16.77;6.35;;;3.90;99.90;;;;;;5053635;28;20140;-74
2023/01/16 03:48:14;;;;;;;11.55;6.78;;;;;;;;;;5053307;28;20119;-74
2023/01/16 03:50:45;;;;;;;12.05;6.32;;;3.90;99.90;;;;;;5053551;28;20381;-73
2023/01/16 03:53:14;;;;;;;19.77;6.88;;;3.70;99.90;;;;;;5053219;28;20574;-75
2023/01/16 03:55:57;;;;;;;17.85;6.65;;;3.60;99.90;;;;;;5052264;28;20049;-73
2023/01/16 03:58:33;;;;;;;12.98;6.03;;;3.80;99.90;;;;;;5052045;28;20190;-73
2023/01/16 04:01:06;;;;;;;16.63;6.60;;;;;;;;;;5053324;28;20147;-73
2023/01/16 04:03:47;;;;;;;12.52;6.53;;;4.10;99.90;;;;;;5053545;28;20094;-75
2023/01/16 04:06:19;;;;;;;17.48;7.55;;;3.60;99.90;;;;;;5053243;28;20055;-74
2023/01/16 04:08:47;;;;;;;16.42;6.63;;;;;;;;;;5052114;28;20053;-73
2023/01/16 04:11:14;;;;;;;16.10;6.88;;;4.50;99.90;;;;;;5052104;28;20059;-74
2023/01/16 04:13:44;;;;;;;13.70;6.38;;;3.70;99.90;;;;;;5051804;28;20107;-73
2023/01/16 04:16:14;;;;;;;22.92;6.68;;;3.70;99.90;;;;;;5052712;28;20066;-74
2023/01/16 04:18:40;;;;;;;12.98;6.20;;;3.70;99.90;;;;;;5052987;28;20049;-74
2023/01/16 04:21:07;;;;;;;14.38;6.57;;;;;;;;;;5053049;28;20041;-74
2023/01/16 04:23:34;;;;;;;15.18;6.00;;;;;;;;;;5053204;28;20053;-74
2023/01/16 04:26:00;;;;;;;21.67;6.70;;;;;;;;;;5052852;28;20079;-74
2023/01/16 04:28:26;;;;;;;19.27;9.10;;;;;;;;;;5052398;28;20049;-73
2023/01/16 04:30:52;;;;;;;22.83;8.38;;;4.40;99.90;;;;;;5052406;28;20045;-73
2023/01/16 04:33:18;;;;;;;15.70;7.38;;;4.60;99.90;;;;;;5052625;28;20106;-74
2023/01/16 04:35:44;;;;;;;15.40;7.63;;;;;;;;;;5052617;28;20045;-74
2023/01/16 04:38:11;;;;;;;15.82;7.25;;;4.50;99.90;;;;;;5053893;28;20076;-74
2023/01/16 04:40:37;;;;;;;15.82;7.60;;;4.50;99.90;;;;;;5053718;28;20516;-74
2023/01/16 04:43:03;;;;;;;16.65;8.02;;;3.70;99.90;;;;;;5050943;28;20097;-74
2023/01/16 04:45:29;;;;;;;18.52;8.27;;;;;;;;;;5050422;28;20094;-75
2023/01/16 04:47:55;;;;;;;18.92;8.48;;;4.50;99.90;;;;;;5052388;28;20053;-75
2023/01/16 04:50:21;;;;;;;16.10;7.55;;;4.50;99.90;;;;;;5051306;28;20078;-74
2023/01/16 04:52:47;;;;;;;17.50;8.10;;;4.00;99.90;;;;;;5052200;28;20496;-74
2023/01/16 04:55:13;;;;;;;21.85;7.80;;;4.10;99.90;;;;;;5050970;28;20151;-74
2023/01/16 04:57:39;;;;;;;18.52;8.27;;;4.30;99.90;;;;;;5051179;28;20179;-74
2023/01/16 05:00:08;;;;;;;17.25;8.68;;;3.80;99.90;;;;;;5050516;28;20052;-74
2023/01/16 05:02:34;;;;;;;17.20;8.15;;;;;;;;;;5052121;28;20049;-74
2023/01/16 05:05:00;;;;;;;21.00;9.80;;;3.90;99.90;;;;;;5051084;28;20068;-74
2023/01/16 05:07:27;;;;;;;18.58;8.65;;;;;;;;;;5052415;28;20052;-75
2023/01/16 05:09:53;;;;;;;20.50;10.20;;;;;;;;;;5050990;28;20075;-74
2023/01/16 05:12:19;;;;;;;18.48;9.88;;;;;;;;;;5050976;28;20410;-74
2023/01/16 05:14:45;;;;;;;20.77;9.88;;;4.00;99.90;;;;;;5051569;28;20055;-74
2023/01/16 05:17:10;;;;;;;21.83;10.30;;;4.00;99.90;;;;;;5052019;28;20182;-75
2023/01/16 05:19:36;;;;;;;17.25;9.60;;;;;;;;;;5050590;28;20045;-74
2023/01/16 05:22:02;;;;;;;20.20;10.10;;;4.00;99.90;;;;;;5051829;28;20401;-74
2023/01/16 05:24:28;;;;;;;21.27;9.98;;;4.60;99.90;;;;;;5051939;28;20043;-75
2023/01/16 05:26:54;;;;;;;23.50;10.65;;;3.70;99.90;;;;;;5050591;28;20477;-74
2023/01/16 05:29:19;;;;;;;23.00;10.85;;;3.80;99.90;;;;;;5051621;28;20061;-74
2023/01/16 05:31:45;;;;;;;25.00;9.80;;;;;;;;;;5051802;28;20132;-74
2023/01/16 05:34:11;;;;;;;23.90;10.07;;;4.00;99.90;;;;;;5051749;28;20052;-74
2023/01/16 05:36:37;;;;;;;23.20;9.90;;;4.50;99.90;;;;;;5051787;28;20496;-75
2023/01/16 05:39:02;;;;;;;18.55;9.43;;;3.80;99.90;;;;;;5051709;28;20535;-75
2023/01/16 05:41:28;;;;;;;26.48;10.27;;;3.90;99.90;;;;;;5051331;28;20071;-74
2023/01/16 05:43:54;;;;;;;19.77;10.50;;;;;;;;;;5051504;28;20102;-75
2023/01/16 05:46:20;;;;;;;21.40;10.82;;;4.30;99.90;;;;;;5050285;28;20053;-74
2023/01/16 05:48:46;;;;;;;19.40;11.82;;;4.10;99.90;;;;;;5051646;28;20041;-74
2023/01/16 05:51:11;;;;;;;20.73;10.52;;;4.40;99.90;;;;;;5050566;28;20045;-74
2023/01/16 05:53:37;;;;;;;18.42;10.30;;;3.80;99.90;;;;;;5050360;28;20048;-74
2023/01/16 05:56:08;;;;;;;22.85;10.38;;;;;;;;;;5052972;28;20135;-74
2023/01/16 05:58:34;;;;;;;28.80;11.68;;;4.20;99.90;;;;;;5055276;28;20056;-74
2023/01/16 06:01:00;;;;;;;22.02;10.80;;;4.40;99.90;;;;;;5055556;28;20099;-74
2023/01/16 06:03:26;;;;;;;19.17;10.82;;;3.50;99.90;;;;;;5055501;28;20045;-74
2023/01/16 06:05:51;;;;;;;21.55;11.75;;;4.30;99.90;;;;;;5055756;28;20056;-74
2023/01/16 06:08:17;;;;;;;23.17;11.10;;;;;;;;;;5054215;28;20075;-73
2023/01/16 06:10:47;;;;;;;24.75;11.20;;;;;;;;;;5055504;28;20103;-74
2023/01/16 06:13:13;;;;;;;25.40;11.85;;;3.60;99.90;;;;;;5055068;28;20055;-74
2023/01/16 06:15:39;;;;;;;26.42;11.38;;;3.50;99.90;;;;;;5054464;28;20045;-74
2023/01/16 06:18:05;;;;;;;27.75;11.82;;;3.90;99.90;;;;;;5054488;28;20049;-74
2023/01/16 06:20:30;;;;;;;29.17;12.02;;;4.10;99.90;;;;;;5055352;28;20135;-74
2023/01/16 06:22:56;;;;;;;24.50;11.35;;;;;;;;;;5055220;28;20049;-74
2023/01/16 06:25:22;;;;;;;25.60;11.73;;;3.60;99.90;;;;;;5055142;28;20055;-74
2023/01/16 06:27:51;;;;;;;26.80;12.20;;;;;;;;;;5054876;28;20045;-74
2023/01/16 06:30:18;;;;;;;22.38;11.13;;;;;;;;;;5055012;28;20094;-74
2023/01/16 06:32:44;;;;;;;27.02;10.95;;;;;;;;;;5054906;28;20095;-75
2023/01/16 06:35:11;;;;;;;22.38;11.30;;;;;;;;;;5055256;28;20547;-75
2023/01/16 06:37:36;;;;;;;23.33;12.27;;;4.10;99.90;;;;;;5054900;28;20052;-74
2023/01/16 06:40:02;;;;;;;22.58;12.27;;;;;;;;;;5053847;28;20390;-74
2023/01/16 06:42:28;;;;;;;23.90;11.63;;;4.40;99.90;;;;;;5054492;28;20057;-75
2023/01/16 06:44:54;;;;;;;27.00;12.23;;;;;;;;;;5054813;28;20442;-74
2023/01/16 06:47:20;;;;;;;25.95;12.38;;;4.50;99.90;;;;;;5036983;28;20052;-74
2023/01/16 06:49:46;;;;;;;31.00;12.65;;;4.30;99.90;;;;;;5054565;28;20049;-75
2023/01/16 06:52:11;;;;;;;24.42;11.65;;;3.90;99.90;;;;;;5054645;28;20048;-75
2023/01/16 06:54:38;;;;;;;31.02;12.65;;;;;;;;;;5054515;28;20049;-74
2023/01/16 07:03:45;;;;;;;31.67;12.63;;;;;;;;;;5089248;28;20483;-76
2023/01/16 07:06:12;;;;;;;25.27;12.45;;;;;;;;;;5071260;28;20450;-76
2023/01/16 07:08:38;;;;;;;29.80;12.75;;;3.30;99.90;;;;;;5089366;28;20399;-75
2023/01/16 07:11:04;;;;;;;24.80;12.43;;;4.10;99.90;;;;;;5089057;28;20052;-75
2023/01/16 07:13:30;;;;;;;25.80;12.07;;;3.70;99.90;;;;;;5087892;28;20052;-75
2023/01/16 07:24:26;;;;;;;28.15;11.80;;;3.40;99.90;;;;;;5088816;28;20060;-76
2023/01/16 07:26:58;;;;;;;25.20;11.63;;;3.60;99.90;;;;;;5087957;28;20097;-74
2023/01/16 07:29:26;;;;;;;27.45;11.68;;;3.20;99.90;;;;;;5087961;28;20056;-76
2023/01/16 07:31:52;;;;;;;25.65;11.13;;;3.50;99.90;;;;;;5087866;28;20052;-74
2023/01/16 07:34:18;;;;;;;;;;;3.50;99.90;;;;;;5089237;28;20506;-74
2023/01/16 07:36:43;;;;;;;23.42;12.27;;;3.70;99.90;;;;;;5087760;28;19924;-76
2023/01/16 07:39:09;;;;;;;28.45;13.07;;;3.20;99.90;;;;;;5088473;28;20048;-76
2023/01/16 07:41:34;;;;;;;21.92;11.65;;;3.20;99.90;;;;;;5087585;28;20044;-74
2023/01/16 07:44:00;;;;;;;21.27;11.57;;;3.50;99.90;;;;;;5088738;28;20484;-74
2023/01/16 07:46:26;;;;;;;25.08;11.57;;;3.80;99.90;;;;;;5088213;28;20078;-75
2023/01/16 07:48:53;;;;;;;26.50;11.95;;;3.40;99.90;;;;;;5087550;28;20414;-74
2023/01/16 07:51:19;;;;;;;25.65;12.10;;;3.60;99.90;;;;;;5087489;28;20087;-75
2023/01/16 07:53:44;;;;;;;25.92;11.32;;;3.10;99.90;;;;;;5088251;28;20457;-75
2023/01/16 07:56:10;;;;;;;26.48;12.02;;;;;;;;;;5088461;28;20507;-76
2023/01/16 07:58:37;;;;;;;27.02;11.60;;;3.70;99.90;;;;;;5087181;28;20059;-75
2023/01/16 08:01:05;;;;;;;23.27;10.90;;;3.40;99.90;;;;;;5087367;28;20052;-74
2023/01/16 08:03:31;;;;;;;21.30;10.68;;;;;;;;;;5087777;28;20064;-75
2023/01/16 08:05:58;;;;;;;25.35;10.30;;;;;;;;;;5088339;28;20071;-74
2023/01/16 08:08:28;;;;;;;23.63;12.18;;;;;;;;;;5088033;28;20083;-74
2023/01/16 08:10:58;;;;;;;28.38;11.82;;;2.90;99.90;;;;;;5088508;28;20052;-75
2023/01/16 08:13:26;;;;;;;20.98;11.43;;;2.80;99.90;;;;;;5084336;28;20040;-74
2023/01/16 08:15:52;;;;;;;22.45;10.38;;;3.50;99.90;;;;;;5069971;28;20044;-74
2023/01/16 08:18:18;;;;;;;24.00;10.20;;;2.90;99.90;;;;;;5061629;28;20447;-75
2023/01/16 08:20:44;;;;;;;27.40;10.77;;;3.80;99.90;;;;;;5059072;28;20385;-74
2023/01/16 08:23:11;;;;;;;22.52;9.63;;;3.50;99.90;;;;;;5065040;28;20041;-75
2023/01/16 08:25:36;;;;;;;;;;;2.90;99.90;;;;;;5056679;28;20052;-74
2023/01/16 08:28:02;;;;;;;22.48;10.88;;;2.90;99.90;;;;;;5073703;28;19943;-73
2023/01/16 08:30:28;;;;;;;21.52;10.07;;;3.10;99.90;;;;;;5073331;28;20122;-73
2023/01/16 08:33:01;;;;;;;20.50;9.32;;;2.90;99.90;;;;;;5056110;28;20055;-73
2023/01/16 08:35:28;;;;;;;20.15;9.55;;;3.60;99.90;;;;;;5073898;28;20114;-72
2023/01/16 08:37:53;;;;;;;18.38;8.85;;;3.60;99.90;;;;;;5073096;28;20048;-73
2023/01/16 08:40:20;;;;;;;35.22;9.32;;;3.80;99.90;;;;;;5072623;28;20053;-73
2023/01/16 08:51:24;;;;;;;22.77;9.02;;;3.40;99.90;;;;;;5065168;28;20048;-73
2023/01/16 08:53:55;;;;;;;22.63;9.63;;;3.40;99.90;;;;;;5070824;28;20055;-73
2023/01/16 08:56:22;;;;;;;16.70;8.50;;;3.20;99.90;;;;;;5073410;28;20400;-76
2023/01/16 08:58:48;;;;;;;16.77;8.68;;;3.40;99.90;;;;;;5072901;28;20056;-72
2023/01/16 09:01:15;;;;;;;19.83;9.00;;;4.10;99.90;;;;;;5070937;28;20049;-72
2023/01/16 09:03:40;;;;;;;21.95;9.32;;;3.60;99.90;;;;;;5070123;28;20117;-73
2023/01/16 09:06:06;;;;;;;22.00;8.73;;;3.70;99.90;;;;;;5071340;28;20447;-73
2023/01/16 09:08:32;;;;;;;17.50;9.23;;;4.00;99.90;;;;;;5071673;28;20527;-73
2023/01/16 09:13:48;;;;;;;22.25;8.50;;;4.00;99.90;;;;;;5071600;28;20052;-73
2023/01/16 09:16:18;;;;;;;15.13;7.95;;;3.60;99.90;;;;;;5070318;28;20441;-73
2023/01/16 09:18:44;;;;;;;17.20;8.70;;;3.90;99.90;;;;;;5073427;28;20059;-73
2023/01/16 09:21:10;;;;;;;18.15;7.75;;;3.60;99.90;;;;;;5072778;28;20131;-72
2023/01/16 09:23:35;;;;;;;18.52;8.27;;;4.10;99.90;;;;;;5073220;28;20045;-71
2023/01/16 09:26:01;;;;;;;19.60;8.85;;;3.50;99.90;;;;;;5072263;28;20048;-73
2023/01/16 09:28:27;;;;;;;17.83;8.60;;;3.40;99.90;;;;;;5073149;28;20135;-72
2023/01/16 09:30:52;;;;;;;18.98;8.30;;;3.60;99.90;;;;;;5072154;28;20177;-72
2023/01/16 09:33:18;;;;;;;16.35;9.13;;;3.50;99.90;;;;;;5073335;28;20457;-71
2023/01/16 09:35:44;;;;;;;18.52;8.73;;;3.80;99.90;;;;;;5073026;28;20052;-72
2023/01/16 09:38:09;;;;;;;19.98;9.13;;;3.50;99.90;;;;;;5071427;28;20044;-71
2023/01/16 09:40:36;;;;;;;21.70;7.88;;;4.20;99.90;;;;;;5072979;28;20189;-71
2023/01/16 09:43:35;;;;;;;16.17;8.43;;;4.20;99.90;;;;;;5072868;28;20044;-73
2023/01/16 09:46:19;;;;;;;16.95;9.02;;;4.20;99.90;;;;;;5072911;28;20194;-73
2023/01/16 09:48:57;;;;;;;15.13;8.32;;;4.20;99.90;;;;;;5072813;28;20047;-72
2023/01/16 09:51:35;;;;;;;19.80;7.80;;;4.40;99.90;;;;;;5072513;28;20468;-71
2023/01/16 10:00:08;;;;;;;15.77;8.00;;;;;;;;;;5063838;28;20089;-71
2023/01/16 10:02:35;;;;;;;14.85;7.15;;;3.80;99.90;;;;;;5072510;28;20057;-72
2023/01/16 10:05:04;;;;;;;13.10;7.60;;;4.20;99.90;;;;;;5072454;28;20095;-71
2023/01/16 10:08:05;;;;;;;15.32;7.50;;;4.40;99.90;;;;;;5072128;28;20485;-71
2023/01/16 10:10:51;;;;;;;15.15;6.68;;;4.60;99.90;;;;;;5029906;28;20145;-72
2023/01/16 10:13:36;;;;;;;15.50;7.55;;;4.50;99.90;;;;;;5069408;28;20517;-72
2023/01/16 10:16:32;;;;;;;14.73;6.85;;;3.90;99.90;;;;;;5072394;28;20449;-73
2023/01/16 10:19:19;;;;;;;15.50;7.40;;;3.80;99.90;;;;;;5072050;28;20049;-72
2023/01/16 10:21:53;;;;;;;12.80;7.00;;;3.90;99.90;;;;;;5072047;28;20040;-72
2023/01/16 10:24:32;;;;;;;13.30;6.72;;;4.30;99.90;;;;;;5072117;28;20110;-72
2023/01/16 10:27:15;;;;;;;11.98;6.28;;;4.40;99.90;;;;;;5072460;28;20164;-74
2023/01/16 10:30:10;;;;;;;15.10;7.28;;;4.60;99.90;;;;;;5072127;28;20068;-71
2023/01/16 10:32:52;;;;;;;14.10;6.63;;;4.60;99.90;;;;;;5071879;28;20127;-71
2023/01/16 10:35:24;;;;;;;13.20;6.15;;;3.80;99.90;;;;;;5072109;28;20405;-71
2023/01/16 10:37:51;;;;;;;11.50;5.82;;;3.80;99.90;;;;;;5072100;28;20051;-72
2023/01/16 10:40:24;;;;;;;;;;;4.70;99.90;;;;;;5072541;28;20052;-71
2023/01/16 10:51:27;;;;;;;15.55;6.15;;;4.10;99.90;;;;;;5071680;28;20063;-71
2023/01/16 10:53:53;;;;;;;8.60;5.80;;;4.60;99.90;;;;;;5071720;28;20044;-71
2023/01/16 10:56:19;;;;;;;13.20;4.97;;;4.50;99.90;;;;;;5071744;28;20048;-70
2023/01/16 10:58:44;;;;;;;11.80;5.93;;;4.40;99.90;;;;;;5071809;28;20048;-70
2023/01/16 11:01:16;;;;;;;11.18;5.68;;;;;;;;;;5070696;28;20091;-71
2023/01/16 11:03:58;;;;;;;9.82;4.80;;;4.10;99.90;;;;;;5071277;28;20477;-71
2023/01/16 11:06:26;;;;;;;10.18;4.93;;;4.20;99.90;;;;;;5071684;28;20147;-70
2023/01/16 11:09:19;;;;;;;10.10;5.05;;;4.90;99.90;;;;;;5071684;28;20044;-71
2023/01/16 11:20:32;;;;;;;9.50;4.57;;;4.00;99.90;;;;;;5071639;28;20048;-70
2023/01/16 11:23:03;;;;;;;10.10;4.20;;;4.30;99.90;;;;;;5071504;28;20080;-69
2023/01/16 11:25:31;;;;;;;10.45;4.07;;;4.00;99.90;;;;;;5071548;28;20051;-69
2023/01/16 11:28:02;;;;;;;6.88;3.88;;;4.00;99.90;;;;;;5064951;28;20128;-72
2023/01/16 11:30:33;;;;;;;6.38;3.55;;;3.80;99.90;;;;;;5070620;28;20106;-71
2023/01/16 11:32:59;;;;;;;5.40;3.67;;;3.90;99.90;;;;;;5071409;28;20055;-72
2023/01/16 11:35:32;;;;;;;7.00;3.40;;;4.30;99.90;;;;;;5071321;28;20048;-71
2023/01/16 11:37:59;;;;;;;10.20;3.47;;;3.60;99.90;;;;;;5069847;28;20045;-73
2023/01/16 11:40:27;;;;;;;4.65;3.45;;;4.40;99.90;;;;;;5070777;28;20520;-71
2023/01/16 11:46:02;;;;;;;7.38;2.83;;;3.90;99.90;;;;;;5069894;28;20061;-70
2023/01/16 11:48:42;;;;;;;3.60;2.42;;;3.50;99.90;;;;;;5071689;28;20121;-70
2023/01/16 11:51:18;;;;;;;3.85;2.40;;;4.30;99.90;;;;;;5073467;28;20130;-70
2023/01/16 11:53:45;;;;;;;3.13;2.47;;;4.40;99.90;;;;;;5074411;28;20485;-71
2023/01/16 11:56:25;;;;;;;3.15;2.20;;;4.10;99.90;;;;;;5075100;28;20049;-69
2023/01/16 11:59:08;;;;;;;3.47;2.15;;;4.00;99.90;;;;;;5074878;28;20104;-71
2023/01/16 12:04:30;;;;;;;3.83;1.90;;;3.90;99.90;;;;;;5074733;28;20055;-69
2023/01/16 12:07:04;;;;;;;4.10;2.20;;;4.10;99.90;;;;;;5074660;28;20045;-68
2023/01/16 12:09:35;;;;;;;3.50;2.20;;;4.00;99.90;;;;;;5074613;28;20049;-69
2023/01/16 12:15:22;;;;;;;3.40;2.17;;;4.00;99.90;;;;;;5074319;28;20064;-70
2023/01/16 12:18:02;;;;;;;2.58;2.00;;;3.50;99.90;;;;;;5073336;28;20610;-71
2023/01/16 12:20:28;;;;;;;6.13;2.40;;;3.70;99.90;;;;;;5074615;28;20076;-69
2023/01/16 12:23:39;;;;;;;4.03;2.33;;;3.80;99.90;;;;;;5056159;28;20541;-70
2023/01/16 12:26:17;;;;;;;3.35;2.17;;;3.60;99.90;;;;;;5049176;28;20057;-69
2023/01/16 12:28:57;;;;;;;3.78;2.20;;;3.70;99.90;;;;;;5073165;28;20056;-70
2023/01/16 12:32:15;;;;;;;5.03;2.40;;;4.00;99.90;;;;;;5073852;28;20118;-70
2023/01/16 12:34:55;;;;;;;5.00;2.30;;;3.50;99.90;;;;;;5069259;28;20048;-70
2023/01/16 12:37:33;;;;;;;2.97;2.25;;;4.10;99.90;;;;;;5064903;28;20051;-69
2023/01/16 12:40:28;;;;;;;7.28;2.55;;;3.60;99.90;;;;;;5073708;28;20044;-74
2023/01/16 12:43:19;;;;;;;3.47;2.22;;;;;;;;;;5073529;28;20131;-70
2023/01/16 12:46:07;;;;;;;3.35;2.10;;;4.30;99.90;;;;;;5072992;28;20060;-69
2023/01/16 12:48:41;;;;;;;5.13;2.28;;;3.60;99.90;;;;;;5073707;28;20088;-68
2023/01/16 12:51:16;;;;;;;2.45;2.20;;;3.60;99.90;;;;;;5072769;28;20040;-68
2023/01/16 12:54:13;;;;;;;3.40;2.95;;;3.50;99.90;;;;;;5073424;28;20123;-70
2023/01/16 12:56:48;;;;;;;2.60;2.10;;;3.90;99.90;;;;;;5073198;28;20408;-69
2023/01/16 12:59:19;;;;;;;4.80;2.60;;;4.20;99.90;;;;;;5072502;28;20462;-69
2023/01/16 13:01:47;;;;;;;5.32;2.30;;;4.10;99.90;;;;;;5072996;28;20044;-69
2023/01/16 13:04:23;;;;;;;4.10;2.15;;;;;;;;;;5070985;28;20146;-74
2023/01/16 13:06:52;;;;;;;5.80;2.30;;;4.30;99.90;;;;;;5070240;28;20052;-71
2023/01/16 13:09:47;;;;;;;4.95;2.17;;;4.10;99.90;;;;;;5072991;28;20050;-70
2023/01/16 13:15:20;;;;;;;2.47;2.17;;;3.90;99.90;;;;;;5071981;28;20052;-70
2023/01/16 13:17:51;;;;;;;5.60;2.50;;;3.80;99.90;;;;;;5070944;28;20052;-70
2023/01/16 13:20:19;;;;;;;2.70;2.10;;;4.40;99.90;;;;;;5072118;28;20562;-68
2023/01/16 13:22:54;;;;;;;2.50;2.10;;;4.60;99.90;;;;;;5072154;28;20045;-71
2023/01/16 13:25:26;;;;;;;2.60;2.38;;;;;;;;;;5072091;28;20052;-69
2023/01/16 13:28:01;;;;;;;3.92;2.25;;;3.60;99.90;;;;;;5060570;28;20135;-68
2023/01/16 13:30:27;;;;;;;4.93;2.60;;;4.00;99.90;;;;;;5069035;28;20405;-73
2023/01/16 13:33:03;;;;;;;4.40;2.70;;;4.30;99.90;;;;;;5072617;28;20051;-70
2023/01/16 13:35:49;;;;;;;4.67;2.50;;;4.40;99.90;;;;;;5071753;28;20041;-72
2023/01/16 13:38:46;;;;;;;3.85;2.72;;;4.00;99.90;;;;;;5072318;28;20505;-69
2023/01/16 13:41:19;;;;;;;4.15;2.80;;;4.10;99.90;;;;;;5072262;28;20051;-71
2023/01/16 13:47:06;;;;;;;7.00;3.08;;;;;;;;;;5067458;28;20151;-71
2023/01/16 13:49:31;;;;;;;4.10;3.10;;;4.10;99.90;;;;;;5071689;28;20113;-71
2023/01/16 13:52:00;;;;;;;5.40;3.25;;;4.50;99.90;;;;;;5072124;28;20393;-68
2023/01/16 13:54:36;;;;;;;4.85;3.22;;;4.70;99.90;;;;;;5072147;28;20468;-71
2023/01/16 13:57:14;;;;;;;5.53;3.00;;;4.50;99.90;;;;;;5050499;28;20128;-69
2023/01/16 13:59:48;;;;;;;4.90;3.25;;;4.60;99.90;;;;;;5072181;28;20048;-72
2023/01/16 14:02:36;;;;;;;5.88;3.88;;;4.50;99.90;;;;;;5070560;28;20428;-70
2023/01/16 14:05:15;;;;;;;4.07;3.42;;;4.00;99.90;;;;;;5070945;28;20089;-68
2023/01/16 14:10:56;;;;;;;5.97;3.72;;;4.60;99.90;;;;;;5071792;28;20060;-69
2023/01/16 14:13:30;;;;;;;6.95;4.05;;;4.50;99.90;;;;;;5070853;28;20076;-70
2023/01/16 14:16:30;;;;;;;8.05;5.35;;;;;;;;;;5071873;28;20060;-70
2023/01/16 14:18:56;;;;;;;8.02;6.05;;;3.70;99.90;;;;;;5071117;28;20052;-70
2023/01/16 14:21:25;;;;;;;4.80;4.07;;;4.40;99.90;;;;;;5071434;28;20049;-72
2023/01/16 14:24:01;;;;;;;6.50;3.67;;;;;;;;;;5067622;28;20048;-72
2023/01/16 14:26:34;;;;;;;6.80;4.10;;;3.90;99.90;;;;;;5062817;28;20118;-70
2023/01/16 14:29:17;;;;;;;7.68;4.65;;;3.90;99.90;;;;;;5071650;28;20048;-68
2023/01/16 14:31:54;;;;;;;11.23;6.13;;;4.40;99.90;;;;;;5070828;28;20056;-69
2023/01/16 14:34:40;;;;;;;8.00;5.72;;;4.20;99.90;;;;;;5071422;28;20388;-69
2023/01/16 14:37:11;;;;;;;8.80;4.85;;;;;;;;;;5071897;28;20048;-70
2023/01/16 14:39:48;;;;;;;9.85;6.07;;;4.40;99.90;;;;;;5070782;28;20127;-69
2023/01/16 14:57:19;;;;;;;5.28;3.80;;;4.40;99.90;;;;;;5071564;28;20060;-69
2023/01/16 15:00:11;;;;;;;5.65;4.07;;;4.60;99.90;;;;;;5071578;28;20053;-69
2023/01/16 15:03:14;;;;;;;7.18;5.85;;;4.70;99.90;;;;;;5071265;28;20113;-68